Artesia, California
Current Conditions -  °F | °C
As of 10:53 AM on Monday 20 Oct 2014 (Local Time) from KFUL Reporting Station
Broken Clouds Broken Clouds  
Wind Chill: 22°   Ceiling: 2300
Heat Index: 22°   Visibility: 10mi
Dew Point: 15°   Wind: 0mph
Humidity: 64%   Direction: NA
Pressure: 29.94"   Gusts: NA
Location:  33.86°N, 118.07°W
Report Text: KFUL 201753Z 00000KT 10SM BKN023 22/15 A2994 RMK AO2 SLP138 T02220150 10233 20167 51010
Loading
Personal Weather Stations






























Interactive Weather Map
Tropical Storm Tracking
New forecast layout! Learn more

10-Day Weather Forecast

Advertisements
Track Severe Weather on mobile